This is the latest recevied weather packets stored in our database for station/object S51FO-6. If no packets are shown the sender has not sent any weather packets the latest 10 day(s).
| Time | Temp. | Humidity | Pressure | Rain* | Wind** | Luminosity | Snow |
|---|---|---|---|---|---|---|---|
| 1777655384 | 8.89° C | 40% | - | 0 mm | - | - | - |
| 1777653584 | 10° C | 37% | - | 0 mm | - | - | - |
| 1777652984 | 10.56° C | 35% | - | 0 mm | - | - | - |
| 1777649384 | 11.67° C | 34% | - | 0 mm | - | - | - |
| 1777648784 | 12.22° C | 31% | - | 0 mm | - | - | - |
| 1777647584 | 11.67° C | 32% | - | 0 mm | - | - | - |
| 1777645784 | 11.11° C | 31% | - | 0 mm | - | - | - |
| 1777645184 | 11.67° C | 31% | - | 0 mm | - | - | - |
| 1777644584 | 11.67° C | 34% | - | 0 mm | - | - | - |
| 1777643984 | 11.67° C | 30% | - | 0 mm | - | - | - |
| 1777643384 | 11.67° C | 32% | - | 0 mm | - | - | - |
| 1777642784 | 12.22° C | 32% | - | 0 mm | - | - | - |
| 1777642184 | 12.78° C | 29% | - | 0 mm | - | - | - |
| 1777641584 | 11.67° C | 31% | - | 0 mm | - | - | - |
| 1777638584 | 11.67° C | 31% | - | 0 mm | - | - | - |
| 1777637984 | 10.56° C | 31% | - | 0 mm | - | - | - |
| 1777634984 | 11.11° C | 28% | - | 0 mm | - | - | - |
| 1777634384 | 11.11° C | 28% | - | 0 mm | - | - | - |
| 1777633184 | 9.44° C | 29% | - | 0 mm | - | - | - |
| 1777632584 | 8.89° C | 28% | - | 0 mm | - | - | - |
| 1777631984 | 9.44° C | 27% | - | 0 mm | - | - | - |
| 1777630184 | 9.44° C | 27% | - | 0 mm | - | - | - |
| 1777629584 | 8.33° C | 28% | - | 0 mm | - | - | - |
| 1777628984 | 8.89° C | 27% | - | 0 mm | - | - | - |
| 1777627784 | 7.78° C | 27% | - | 0 mm | - | - | - |
* Rain latest hour (hover to see other rain measurements)
** Current wind speed in m/s (hover to see current wind gust speed)